Mililani, Hawaii
Current Conditions -  °F | °C
As of 2:58 AM on Sunday 23 Nov 2014 (Local Time) from PHHI Reporting Station
Broken Clouds Broken Clouds  
Wind Chill: 68°   Ceiling: 5000
Heat Index: 68°   Visibility: 10mi
Dew Point: 65°   Wind: 6mph
Humidity: 89%   Direction: 330°NNW
Pressure: 30.01"   Gusts: NA
Location:  21.45°N, 158.02°W
Report Text: PHHI 231258Z AUTO 33005KT 10SM BKN050 20/18 A3001 RMK AO2 SLP152 T02020183 $
Loading
Personal Weather Stations






























Interactive Weather Map New forecast layout! Learn more

10-Day Weather Forecast

Advertisements
Track Severe Weather on mobile